Terminal Aerodrome Forecast
Issued by NWS Pittsburgh, PA

Home | Current Version | Previous Version | Text Only | Print | Product List | Glossary On
Versions: 1 2 3 4 5 6 7 8 9 10 11 12 13 14 15 16 17 18 19 20 21 22 23 24 25 26 27 28 29
750
FTUS41 KPBZ 061140
TAFPIT
TAF
KPIT 061140Z 0612/0718 35010KT P6SM BKN070
     FM061600 35012G22KT P6SM VCSH BKN050
     FM070100 34005KT P6SM VCSH BKN050
     FM071500 23006KT P6SM BKN250=

USA.gov is the U.S. government's official web portal to all federal, state and local government web resources and services.